createdAt,value
2022-08-21T04:00:30.412Z,18.52
2022-08-21T04:01:30.408Z,18.50
2022-08-21T04:02:30.338Z,18.51
2022-08-21T04:03:30.326Z,18.41
2022-08-21T04:04:30.313Z,18.39
2022-08-21T04:05:30.304Z,18.32
2022-08-21T04:06:34.554Z,18.33
2022-08-21T04:07:31.280Z,18.32
2022-08-21T04:08:30.267Z,18.25
2022-08-21T04:09:30.260Z,18.20
2022-08-21T04:10:30.247Z,18.23
2022-08-21T04:11:35.267Z,18.14
2022-08-21T04:12:30.225Z,18.15
2022-08-21T04:13:30.214Z,18.11
2022-08-21T04:14:30.201Z,18.03
2022-08-21T04:15:30.194Z,18.10
2022-08-21T04:16:30.185Z,17.96
2022-08-21T04:17:30.196Z,17.97
2022-08-21T04:18:30.157Z,18.03
2022-08-21T04:19:30.146Z,17.92
2022-08-21T04:20:30.134Z,17.96
2022-08-21T04:21:30.125Z,17.97
2022-08-21T04:22:35.184Z,18.00
2022-08-21T04:23:30.102Z,17.90
2022-08-21T04:24:30.101Z,17.89
2022-08-21T04:25:30.082Z,17.89
2022-08-21T04:26:30.074Z,17.92
2022-08-21T04:27:30.068Z,17.97
2022-08-21T04:28:30.441Z,18.11
2022-08-21T04:29:30.035Z,18.05
2022-08-21T04:30:30.025Z,18.05
2022-08-21T04:31:30.012Z,17.90
2022-08-21T04:32:30.017Z,17.97
2022-08-21T04:33:35.013Z,17.84
2022-08-21T04:34:29.977Z,17.95
2022-08-21T04:35:29.969Z,17.89
2022-08-21T04:36:29.958Z,17.90
2022-08-21T04:37:29.958Z,17.97
2022-08-21T04:38:36.525Z,17.97
2022-08-21T04:39:30.923Z,17.96
2022-08-21T04:40:30.008Z,17.95
2022-08-21T04:41:29.902Z,17.97
2022-08-21T04:42:29.902Z,17.92
2022-08-21T04:43:29.879Z,17.89
2022-08-21T04:44:34.890Z,17.87
2022-08-21T04:45:29.857Z,17.90
2022-08-21T04:46:29.844Z,17.77
2022-08-21T04:47:44.560Z,17.75
2022-08-21T04:48:30.823Z,17.77
2022-08-21T04:49:29.812Z,17.74
2022-08-21T04:50:29.800Z,17.72
2022-08-21T04:51:30.908Z,17.70
2022-08-21T04:52:29.796Z,17.93
2022-08-21T04:53:29.769Z,17.86
2022-08-21T04:54:29.754Z,17.79
2022-08-21T04:55:34.773Z,17.84
2022-08-21T04:56:29.732Z,17.92
2022-08-21T04:57:34.210Z,17.86
2022-08-21T04:58:30.709Z,17.79
2022-08-21T04:59:29.700Z,17.95
2022-08-21T05:00:29.687Z,17.79
2022-08-21T05:01:29.742Z,17.84
2022-08-21T05:02:29.680Z,17.82
2022-08-21T05:03:29.653Z,17.97
2022-08-21T05:04:29.648Z,17.84
2022-08-21T05:05:29.634Z,17.81
2022-08-21T05:06:34.644Z,17.96
2022-08-21T05:07:42.786Z,17.87
2022-08-21T05:08:30.599Z,17.93
2022-08-21T05:09:29.593Z,17.95
2022-08-21T05:10:29.583Z,17.90
2022-08-21T05:11:29.568Z,17.90
2022-08-21T05:12:29.567Z,17.82
2022-08-21T05:13:29.572Z,17.86
2022-08-21T05:14:29.537Z,17.82
2022-08-21T05:15:29.519Z,17.81
2022-08-21T05:16:36.708Z,17.93
2022-08-21T05:17:35.529Z,17.89
2022-08-21T05:18:29.495Z,18.02
2022-08-21T05:19:29.479Z,17.99
2022-08-21T05:20:29.468Z,18.05
2022-08-21T05:21:29.453Z,18.20
2022-08-21T05:22:29.462Z,18.11
2022-08-21T05:23:29.441Z,18.14
2022-08-21T05:24:29.421Z,18.08
2022-08-21T05:25:29.408Z,18.05
2022-08-21T05:26:29.408Z,18.05
2022-08-21T05:27:29.403Z,18.10
2022-08-21T05:28:34.397Z,17.95
2022-08-21T05:29:29.366Z,18.10
2022-08-21T05:30:29.355Z,18.11
2022-08-21T05:31:29.342Z,18.08
2022-08-21T05:32:29.334Z,18.12
2022-08-21T05:33:29.328Z,18.11
2022-08-21T05:34:29.316Z,18.11
2022-08-21T05:35:29.300Z,18.05
2022-08-21T05:36:29.286Z,18.11
2022-08-21T05:37:29.275Z,18.08
2022-08-21T05:38:29.288Z,18.08
2022-08-21T05:40:05.217Z,18.11
2022-08-21T05:40:30.307Z,18.03
2022-08-21T05:41:29.234Z,18.08
2022-08-21T05:42:29.219Z,18.14
2022-08-21T05:43:29.220Z,18.18
2022-08-21T05:44:29.197Z,18.15
2022-08-21T05:45:43.452Z,18.27
2022-08-21T05:46:30.174Z,18.33
2022-08-21T05:47:29.177Z,18.35
2022-08-21T05:48:29.165Z,18.50
2022-08-21T05:49:29.144Z,18.48
2022-08-21T05:50:34.152Z,18.51
2022-08-21T05:51:29.117Z,18.60
2022-08-21T05:52:29.108Z,18.72
2022-08-21T05:53:29.108Z,18.78
2022-08-21T05:54:29.091Z,18.73
2022-08-21T05:55:29.074Z,18.84
2022-08-21T05:56:30.062Z,18.88
2022-08-21T05:57:29.055Z,18.98
2022-08-21T05:58:29.053Z,19.02
2022-08-21T05:59:29.028Z,18.98
2022-08-21T06:00:29.110Z,18.84
2022-08-21T06:01:34.104Z,18.81
2022-08-21T06:02:28.997Z,18.72
2022-08-21T06:03:28.996Z,18.78
2022-08-21T06:04:28.975Z,18.84
2022-08-21T06:05:36.580Z,18.94
2022-08-21T06:06:29.958Z,18.95
2022-08-21T06:07:28.940Z,18.98
2022-08-21T06:08:28.941Z,19.02
2022-08-21T06:09:28.918Z,19.10
2022-08-21T06:10:28.963Z,19.18
2022-08-21T06:11:29.243Z,19.11
2022-08-21T06:12:33.905Z,19.19
2022-08-21T06:13:28.943Z,19.13
2022-08-21T06:14:28.870Z,19.22
2022-08-21T06:15:28.849Z,19.19
2022-08-21T06:16:28.844Z,19.21
2022-08-21T06:17:28.828Z,19.28
2022-08-21T06:18:28.831Z,19.37
2022-08-21T06:19:28.806Z,19.50
2022-08-21T06:20:28.799Z,19.62
2022-08-21T06:21:28.783Z,19.76
2022-08-21T06:22:28.774Z,19.87
2022-08-21T06:23:33.801Z,19.98
2022-08-21T06:24:28.752Z,20.10
2022-08-21T06:25:28.744Z,20.29
2022-08-21T06:26:28.735Z,20.52
2022-08-21T06:27:28.718Z,20.99
2022-08-21T06:28:28.726Z,21.56
2022-08-21T06:29:28.702Z,21.77
2022-08-21T06:30:28.695Z,21.75
2022-08-21T06:31:28.672Z,21.58
2022-08-21T06:32:28.664Z,21.32
2022-08-21T06:33:32.510Z,21.16
2022-08-21T06:34:33.662Z,20.99
2022-08-21T06:35:28.628Z,20.82
2022-08-21T06:36:28.620Z,20.70
2022-08-21T06:37:28.605Z,20.66
2022-08-21T06:38:28.614Z,20.72
2022-08-21T06:39:32.301Z,20.72
2022-08-21T06:40:28.602Z,20.66
2022-08-21T06:41:28.563Z,20.74
2022-08-21T06:42:28.553Z,20.61
2022-08-21T06:43:32.794Z,20.66
2022-08-21T06:44:29.554Z,20.66
2022-08-21T06:45:33.538Z,20.43
2022-08-21T06:46:28.509Z,20.58
2022-08-21T06:47:28.497Z,20.62
2022-08-21T06:48:28.486Z,20.70
2022-08-21T06:49:28.485Z,20.89
2022-08-21T06:50:28.464Z,21.07
2022-08-21T06:51:28.453Z,21.14
2022-08-21T06:52:28.441Z,21.17
2022-08-21T06:53:28.428Z,21.17
2022-08-21T06:54:28.429Z,21.47
2022-08-21T06:55:29.261Z,21.62
2022-08-21T06:56:33.418Z,21.69
2022-08-21T06:57:28.385Z,21.59
2022-08-21T06:58:28.389Z,21.54
2022-08-21T06:59:28.362Z,21.44
2022-08-21T07:00:28.360Z,21.40
2022-08-21T07:01:28.438Z,21.46
2022-08-21T07:02:28.338Z,21.38
2022-08-21T07:03:28.336Z,21.17
2022-08-21T07:04:28.310Z,21.16
2022-08-21T07:05:28.295Z,21.24
2022-08-21T07:06:28.289Z,21.44
2022-08-21T07:07:33.294Z,21.53
2022-08-21T07:08:28.269Z,21.54
2022-08-21T07:09:28.263Z,21.67
2022-08-21T07:10:28.243Z,21.59
2022-08-21T07:11:28.230Z,21.52
2022-08-21T07:12:28.219Z,21.53
2022-08-21T07:13:28.205Z,21.58
2022-08-21T07:14:28.216Z,21.56
2022-08-21T07:15:28.189Z,21.65
2022-08-21T07:16:28.174Z,21.54
2022-08-21T07:17:28.163Z,21.52
2022-08-21T07:18:33.182Z,21.62
2022-08-21T07:19:28.150Z,21.72
2022-08-21T07:20:28.129Z,21.75
2022-08-21T07:21:28.116Z,21.75
2022-08-21T07:22:28.109Z,21.80
2022-08-21T07:23:28.103Z,21.82
2022-08-21T07:24:28.101Z,21.71
2022-08-21T07:25:28.074Z,21.90
2022-08-21T07:26:28.063Z,21.91
2022-08-21T07:27:28.055Z,21.91
2022-08-21T07:28:28.276Z,21.77
2022-08-21T07:29:33.076Z,21.68
2022-08-21T07:30:28.018Z,21.69
2022-08-21T07:31:28.009Z,21.84
2022-08-21T07:32:27.996Z,21.77
2022-08-21T07:33:27.982Z,21.90
2022-08-21T07:34:27.983Z,21.80
2022-08-21T07:35:27.960Z,21.86
2022-08-21T07:36:27.951Z,21.96
2022-08-21T07:37:27.939Z,22.06
2022-08-21T07:38:27.930Z,22.09
2022-08-21T07:39:27.932Z,22.09
2022-08-21T07:40:32.929Z,22.07
2022-08-21T07:41:27.895Z,22.15
2022-08-21T07:42:27.885Z,22.20
2022-08-21T07:43:27.871Z,22.10
2022-08-21T07:44:27.873Z,22.27
2022-08-21T07:45:27.851Z,22.30
2022-08-21T07:46:27.851Z,22.25
2022-08-21T07:47:41.813Z,22.36
2022-08-21T07:48:28.817Z,22.30
2022-08-21T07:49:27.818Z,22.36
2022-08-21T07:50:27.798Z,22.37
2022-08-21T07:51:32.806Z,22.37
2022-08-21T07:52:27.778Z,22.42
2022-08-21T07:53:27.763Z,22.47
2022-08-21T07:54:33.931Z,22.47
2022-08-21T07:55:28.739Z,22.54
2022-08-21T07:56:27.732Z,22.51
2022-08-21T07:57:27.723Z,22.46
2022-08-21T07:58:27.709Z,22.49
2022-08-21T07:59:27.707Z,22.51
2022-08-21T08:00:27.688Z,22.60
2022-08-21T08:01:27.712Z,22.65
2022-08-21T08:02:32.692Z,22.64
2022-08-21T08:03:28.590Z,22.65
2022-08-21T08:04:27.664Z,22.79
2022-08-21T08:05:27.631Z,22.92
2022-08-21T08:06:27.629Z,22.98
2022-08-21T08:07:27.612Z,23.07
2022-08-21T08:08:27.604Z,22.98
2022-08-21T08:09:27.600Z,22.95
2022-08-21T08:10:27.580Z,22.91
2022-08-21T08:11:27.565Z,22.94
2022-08-21T08:12:27.557Z,22.95
2022-08-21T08:13:32.598Z,23.00
2022-08-21T08:14:31.605Z,22.91
2022-08-21T08:15:27.535Z,22.90
2022-08-21T08:16:27.516Z,22.97
2022-08-21T08:17:27.500Z,22.97
2022-08-21T08:18:27.492Z,23.05
2022-08-21T08:19:27.488Z,23.15
2022-08-21T08:20:27.470Z,23.15
2022-08-21T08:21:27.457Z,23.27
2022-08-21T08:22:27.446Z,23.23
2022-08-21T08:23:27.434Z,23.09
2022-08-21T08:24:32.457Z,23.12
2022-08-21T08:25:27.412Z,23.15
2022-08-21T08:26:27.402Z,23.25
2022-08-21T08:27:27.389Z,22.97
2022-08-21T08:28:27.382Z,22.80
2022-08-21T08:29:27.380Z,22.60
2022-08-21T08:30:31.262Z,22.64
2022-08-21T08:31:28.346Z,22.70
2022-08-21T08:32:27.337Z,22.82
2022-08-21T08:33:27.332Z,22.75
2022-08-21T08:34:27.328Z,22.80
2022-08-21T08:35:32.341Z,22.80
2022-08-21T08:36:27.296Z,22.98
2022-08-21T08:37:30.480Z,23.09
2022-08-21T08:38:28.270Z,23.04
2022-08-21T08:39:29.604Z,23.22
2022-08-21T08:40:27.274Z,23.28
2022-08-21T08:41:30.843Z,23.36
2022-08-21T08:42:32.730Z,23.36
2022-08-21T08:43:28.211Z,23.33
2022-08-21T08:44:27.204Z,23.23
2022-08-21T08:45:27.223Z,23.33
2022-08-21T08:46:32.206Z,23.35
2022-08-21T08:47:27.173Z,23.38
2022-08-21T08:48:27.158Z,23.36
2022-08-21T08:49:27.171Z,23.42
2022-08-21T08:50:27.135Z,23.50
2022-08-21T08:51:27.125Z,23.51
2022-08-21T08:52:27.113Z,23.47
2022-08-21T08:53:27.103Z,23.50
2022-08-21T08:54:27.099Z,23.50
2022-08-21T08:55:27.434Z,23.68
2022-08-21T08:56:27.071Z,23.68
2022-08-21T08:57:32.079Z,23.72
2022-08-21T08:58:27.045Z,23.72
2022-08-21T08:59:27.050Z,23.68
2022-08-21T09:00:27.026Z,23.78
2022-08-21T09:01:27.025Z,23.87
2022-08-21T09:02:27.150Z,23.93
2022-08-21T09:03:26.994Z,24.03
2022-08-21T09:04:26.992Z,24.31
2022-08-21T09:05:26.978Z,24.31
2022-08-21T09:06:26.957Z,24.28
2022-08-21T09:07:26.946Z,24.18
2022-08-21T09:08:31.958Z,24.13
2022-08-21T09:09:26.931Z,24.09
2022-08-21T09:10:26.912Z,24.10
2022-08-21T09:11:26.905Z,24.27
2022-08-21T09:12:26.894Z,24.30
2022-08-21T09:13:26.880Z,24.39
2022-08-21T09:14:27.303Z,24.45
2022-08-21T09:15:26.857Z,24.52
2022-08-21T09:16:26.849Z,24.62
2022-08-21T09:17:26.847Z,24.73
2022-08-21T09:18:26.824Z,24.73
2022-08-21T09:19:31.847Z,24.67
2022-08-21T09:20:26.801Z,24.71
2022-08-21T09:21:26.796Z,24.67
2022-08-21T09:22:26.779Z,24.64
2022-08-21T09:23:26.780Z,24.65
2022-08-21T09:24:26.768Z,24.78
2022-08-21T09:25:26.753Z,24.78
2022-08-21T09:26:26.736Z,24.91
2022-08-21T09:27:26.726Z,24.99
2022-08-21T09:28:26.713Z,25.05
2022-08-21T09:29:26.761Z,25.00
2022-08-21T09:30:31.729Z,25.03
2022-08-21T09:31:26.682Z,25.02
2022-08-21T09:32:37.518Z,25.10
2022-08-21T09:33:27.663Z,25.15
2022-08-21T09:34:26.647Z,25.30
2022-08-21T09:35:26.648Z,25.32
2022-08-21T09:36:26.626Z,25.38
2022-08-21T09:37:26.643Z,25.43
2022-08-21T09:38:26.602Z,25.45
2022-08-21T09:39:26.603Z,25.58
2022-08-21T09:40:26.658Z,25.58
2022-08-21T09:41:31.598Z,25.23
2022-08-21T09:42:26.560Z,25.30
2022-08-21T09:43:26.554Z,25.33
2022-08-21T09:44:26.570Z,25.36
2022-08-21T09:45:26.527Z,25.35
2022-08-21T09:46:26.515Z,25.45
2022-08-21T09:47:26.967Z,25.57
2022-08-21T09:48:27.176Z,25.61
2022-08-21T09:49:27.514Z,25.60
2022-08-21T09:50:26.474Z,25.65
2022-08-21T09:51:26.462Z,25.65
2022-08-21T09:52:31.474Z,25.67
2022-08-21T09:53:26.439Z,25.79
2022-08-21T09:54:26.428Z,25.85
2022-08-21T09:55:26.428Z,25.76
2022-08-21T09:56:26.404Z,25.75
2022-08-21T09:57:26.396Z,25.87
2022-08-21T09:58:26.384Z,26.05
2022-08-21T09:59:26.373Z,26.02
2022-08-21T10:00:26.373Z,26.13
2022-08-21T10:01:26.446Z,25.99
2022-08-21T10:02:26.341Z,25.90
2022-08-21T10:03:31.352Z,25.92
2022-08-21T10:04:26.325Z,26.01
2022-08-21T10:05:26.318Z,26.09
2022-08-21T10:06:26.295Z,26.13
2022-08-21T10:07:26.288Z,26.06
2022-08-21T10:08:26.273Z,26.10
2022-08-21T10:09:26.277Z,26.12
2022-08-21T10:10:26.263Z,26.06
2022-08-21T10:11:26.281Z,25.97
2022-08-21T10:12:26.234Z,25.94
2022-08-21T10:13:26.233Z,25.97
2022-08-21T10:14:31.241Z,26.07
2022-08-21T10:15:26.216Z,26.18
2022-08-21T10:16:26.190Z,26.26
2022-08-21T10:17:26.179Z,26.33
2022-08-21T10:18:26.165Z,26.26
2022-08-21T10:19:26.156Z,26.29
2022-08-21T10:20:26.159Z,26.33
2022-08-21T10:21:26.139Z,26.25
2022-08-21T10:22:26.123Z,26.33
2022-08-21T10:23:26.132Z,26.32
2022-08-21T10:24:30.947Z,26.40
2022-08-21T10:25:32.142Z,26.39
2022-08-21T10:26:26.083Z,26.44
2022-08-21T10:27:26.079Z,26.48
2022-08-21T10:28:26.068Z,26.35
2022-08-21T10:29:26.052Z,26.35
2022-08-21T10:30:26.046Z,26.32
2022-08-21T10:31:26.028Z,26.32
2022-08-21T10:32:26.786Z,26.18
2022-08-21T10:33:26.009Z,25.99
2022-08-21T10:34:25.993Z,25.88
2022-08-21T10:35:25.995Z,25.77
2022-08-21T10:36:30.993Z,25.80
2022-08-21T10:37:25.964Z,25.88
2022-08-21T10:38:48.839Z,25.79
2022-08-21T10:39:35.890Z,25.73
2022-08-21T10:40:27.018Z,25.83
2022-08-21T10:41:25.919Z,25.90
2022-08-21T10:42:28.268Z,25.90
2022-08-21T10:43:25.900Z,25.97
2022-08-21T10:44:25.885Z,25.88
2022-08-21T10:45:25.889Z,25.97
2022-08-21T10:46:25.864Z,25.99
2022-08-21T10:47:30.887Z,26.12
2022-08-21T10:48:25.848Z,26.36
2022-08-21T10:49:25.836Z,26.21
2022-08-21T10:50:25.821Z,26.23
2022-08-21T10:51:29.058Z,26.40
2022-08-21T10:52:25.804Z,26.45
2022-08-21T10:53:25.788Z,26.65
2022-08-21T10:54:25.778Z,26.72
2022-08-21T10:55:25.765Z,26.91
2022-08-21T10:56:25.763Z,26.97
2022-08-21T10:57:31.912Z,27.04
2022-08-21T10:58:31.751Z,26.89
2022-08-21T10:59:25.722Z,26.99
2022-08-21T11:00:25.871Z,26.95
2022-08-21T11:01:25.709Z,26.89
2022-08-21T11:02:25.688Z,26.88
2022-08-21T11:03:25.676Z,26.81
2022-08-21T11:04:25.670Z,26.88
2022-08-21T11:05:25.655Z,26.82
2022-08-21T11:06:25.670Z,26.80
2022-08-21T11:07:25.635Z,26.82
2022-08-21T11:08:25.619Z,26.84
2022-08-21T11:09:30.633Z,26.84
2022-08-21T11:10:25.724Z,26.85
2022-08-21T11:11:25.599Z,26.81
2022-08-21T11:12:26.574Z,26.85
2022-08-21T11:13:30.617Z,26.73
2022-08-21T11:14:26.578Z,26.70
2022-08-21T11:15:29.557Z,26.67
2022-08-21T11:16:25.542Z,26.69
2022-08-21T11:17:25.523Z,26.47
2022-08-21T11:18:25.510Z,26.50
2022-08-21T11:19:25.505Z,26.48
2022-08-21T11:20:30.525Z,26.44
2022-08-21T11:21:25.490Z,26.40
2022-08-21T11:22:25.464Z,26.55
2022-08-21T11:23:25.458Z,26.50
2022-08-21T11:24:25.475Z,26.37
2022-08-21T11:25:25.434Z,26.30
2022-08-21T11:26:26.429Z,26.39
2022-08-21T11:27:25.411Z,26.43
2022-08-21T11:28:25.402Z,26.44
2022-08-21T11:29:25.396Z,26.65
2022-08-21T11:30:25.391Z,26.62
2022-08-21T11:31:30.399Z,26.65
2022-08-21T11:32:25.357Z,26.77
2022-08-21T11:33:25.353Z,26.88
2022-08-21T11:34:25.336Z,26.88
2022-08-21T11:35:25.338Z,27.03
2022-08-21T11:36:25.328Z,27.07
2022-08-21T11:37:25.300Z,27.12
2022-08-21T11:38:25.291Z,27.21
2022-08-21T11:39:25.279Z,27.27
2022-08-21T11:40:25.337Z,27.28
2022-08-21T11:41:25.284Z,27.13
2022-08-21T11:42:30.266Z,27.07
2022-08-21T11:43:25.253Z,27.07
2022-08-21T11:44:25.227Z,27.12
2022-08-21T11:45:26.181Z,27.19
2022-08-21T11:46:25.210Z,27.22
2022-08-21T11:47:25.190Z,27.28
2022-08-21T11:48:25.179Z,27.22
2022-08-21T11:49:25.168Z,27.29
2022-08-21T11:50:34.225Z,27.37
2022-08-21T11:51:26.158Z,27.29
2022-08-21T11:52:25.132Z,27.39
2022-08-21T11:53:30.149Z,27.41
2022-08-21T11:54:25.111Z,27.41
2022-08-21T11:55:25.108Z,27.43
2022-08-21T11:56:25.099Z,27.28
2022-08-21T11:57:25.086Z,27.36
2022-08-21T11:58:25.066Z,27.32
2022-08-21T11:59:25.058Z,27.40
2022-08-21T12:00:25.051Z,27.50
2022-08-21T12:01:25.049Z,27.49
2022-08-21T12:02:25.077Z,27.47
2022-08-21T12:03:25.012Z,27.62
2022-08-21T12:04:30.041Z,27.78
2022-08-21T12:05:24.992Z,27.94
2022-08-21T12:06:24.979Z,28.41
2022-08-21T12:07:24.980Z,28.98
2022-08-21T12:08:24.964Z,29.49
2022-08-21T12:09:24.970Z,30.27
2022-08-21T12:10:24.936Z,30.84
2022-08-21T12:11:24.931Z,31.07
2022-08-21T12:12:25.934Z,31.39
2022-08-21T12:13:39.992Z,31.43
2022-08-21T12:14:25.932Z,32.01
2022-08-21T12:15:29.946Z,32.41
2022-08-21T12:16:24.894Z,32.63
2022-08-21T12:17:24.897Z,32.74
2022-08-21T12:18:24.852Z,32.96
2022-08-21T12:19:24.847Z,33.23
2022-08-21T12:20:24.829Z,33.23
2022-08-21T12:21:24.833Z,33.49
2022-08-21T12:22:24.811Z,32.03
2022-08-21T12:23:24.801Z,31.14
2022-08-21T12:24:24.789Z,31.25
2022-08-21T12:25:24.790Z,31.73
2022-08-21T12:26:24.781Z,32.43
2022-08-21T12:27:24.766Z,32.88
2022-08-21T12:28:29.771Z,33.22
2022-08-21T12:29:24.740Z,33.09
2022-08-21T12:30:25.798Z,33.49
2022-08-21T12:31:24.722Z,33.72
2022-08-21T12:32:24.717Z,33.90
2022-08-21T12:33:24.701Z,33.37
2022-08-21T12:34:24.686Z,33.69
2022-08-21T12:35:25.495Z,33.76
2022-08-21T12:36:24.667Z,33.90
2022-08-21T12:37:24.673Z,34.35
2022-08-21T12:38:24.646Z,34.52
2022-08-21T12:39:29.659Z,34.66
2022-08-21T12:40:24.722Z,33.94
2022-08-21T12:41:24.621Z,33.91
2022-08-21T12:42:24.618Z,34.08
2022-08-21T12:43:24.597Z,34.08
2022-08-21T12:44:24.586Z,34.35
2022-08-21T12:45:24.578Z,34.40
2022-08-21T12:46:24.568Z,33.53
2022-08-21T12:47:24.568Z,32.85
2022-08-21T12:48:25.007Z,31.29
2022-08-21T12:49:26.703Z,30.92
2022-08-21T12:50:29.557Z,30.60
2022-08-21T12:51:24.516Z,30.42
2022-08-21T12:52:24.517Z,30.35
2022-08-21T12:53:24.495Z,30.24
2022-08-21T12:54:24.486Z,30.15
2022-08-21T12:55:24.475Z,30.02
2022-08-21T12:56:24.467Z,29.65
2022-08-21T12:57:24.558Z,29.36
2022-08-21T12:58:24.442Z,29.34
2022-08-21T12:59:24.432Z,29.18
2022-08-21T13:00:24.420Z,29.16
2022-08-21T13:01:29.488Z,29.09
2022-08-21T13:02:24.435Z,29.21
2022-08-21T13:03:24.415Z,29.06
2022-08-21T13:04:24.378Z,28.98
2022-08-21T13:05:24.369Z,29.00
2022-08-21T13:06:24.356Z,28.77
2022-08-21T13:07:24.365Z,28.73
2022-08-21T13:08:24.344Z,28.66
2022-08-21T13:09:24.328Z,28.67
2022-08-21T13:10:24.319Z,28.61
2022-08-21T13:11:32.619Z,28.62
2022-08-21T13:12:28.336Z,28.68
2022-08-21T13:13:28.194Z,28.71
2022-08-21T13:14:29.303Z,28.66
2022-08-21T13:15:24.289Z,28.52
2022-08-21T13:16:24.308Z,28.61
2022-08-21T13:17:25.859Z,28.41
2022-08-21T13:18:24.240Z,28.30
2022-08-21T13:19:24.270Z,28.33
2022-08-21T13:20:24.212Z,28.37
2022-08-21T13:21:24.202Z,28.37
2022-08-21T13:22:34.584Z,28.36
2022-08-21T13:23:25.241Z,28.27
2022-08-21T13:24:42.816Z,28.27
2022-08-21T13:25:25.154Z,28.39
2022-08-21T13:26:24.154Z,28.37
2022-08-21T13:27:29.155Z,28.34
2022-08-21T13:28:24.153Z,28.36
2022-08-21T13:29:24.260Z,28.44
2022-08-21T13:30:24.100Z,28.31
2022-08-21T13:31:24.090Z,28.41
2022-08-21T13:32:24.079Z,28.48
2022-08-21T13:33:24.081Z,28.37
2022-08-21T13:34:25.098Z,28.31
2022-08-21T13:35:24.045Z,28.21
2022-08-21T13:36:24.036Z,28.21
2022-08-21T13:37:24.031Z,28.34
2022-08-21T13:38:27.264Z,28.31
2022-08-21T13:39:24.007Z,28.34
2022-08-21T13:40:29.020Z,28.36
2022-08-21T13:41:23.989Z,28.36
2022-08-21T13:42:23.990Z,28.44
2022-08-21T13:43:23.972Z,28.34
2022-08-21T13:44:23.958Z,28.39
2022-08-21T13:45:23.957Z,28.39
2022-08-21T13:46:23.929Z,28.43
2022-08-21T13:47:23.925Z,28.52
2022-08-21T13:48:23.921Z,28.59
2022-08-21T13:49:23.899Z,28.61
2022-08-21T13:50:23.890Z,28.67
2022-08-21T13:51:28.901Z,28.61
2022-08-21T13:52:23.869Z,28.64
2022-08-21T13:53:23.864Z,28.64
2022-08-21T13:54:23.841Z,28.64
2022-08-21T13:55:23.833Z,28.74
2022-08-21T13:56:23.830Z,28.76
2022-08-21T13:57:23.814Z,28.76
2022-08-21T13:58:23.807Z,28.78
2022-08-21T13:59:23.785Z,28.76
2022-08-21T14:00:23.776Z,28.73
2022-08-21T14:01:23.832Z,28.77
2022-08-21T14:02:28.791Z,28.76
2022-08-21T14:03:23.743Z,28.77
2022-08-21T14:04:23.739Z,28.77
2022-08-21T14:05:23.722Z,28.68
2022-08-21T14:06:23.714Z,28.68
2022-08-21T14:07:23.709Z,28.73
2022-08-21T14:08:30.072Z,28.66
2022-08-21T14:09:24.676Z,28.56
2022-08-21T14:10:23.676Z,28.44
2022-08-21T14:11:23.658Z,28.40
2022-08-21T14:12:24.016Z,28.37
2022-08-21T14:13:28.708Z,28.31
2022-08-21T14:14:23.624Z,28.27
2022-08-21T14:15:23.613Z,28.27
2022-08-21T14:16:23.604Z,28.24
2022-08-21T14:17:25.028Z,28.15
2022-08-21T14:18:23.595Z,28.07
2022-08-21T14:19:23.570Z,28.03
2022-08-21T14:20:23.561Z,27.97
2022-08-21T14:21:23.551Z,28.02
2022-08-21T14:22:23.538Z,28.03
2022-08-21T14:23:23.535Z,28.07
2022-08-21T14:24:28.548Z,28.09
2022-08-21T14:25:23.504Z,28.15
2022-08-21T14:26:23.513Z,28.21
2022-08-21T14:27:23.486Z,28.14
2022-08-21T14:28:23.491Z,28.19
2022-08-21T14:29:23.482Z,28.29
2022-08-21T14:30:23.457Z,28.25
2022-08-21T14:31:23.457Z,28.17
2022-08-21T14:32:25.056Z,28.36
2022-08-21T14:33:23.435Z,28.43
2022-08-21T14:34:23.410Z,28.37
2022-08-21T14:35:28.422Z,28.30
2022-08-21T14:36:23.415Z,28.37
2022-08-21T14:37:23.379Z,28.37
2022-08-21T14:38:23.377Z,28.39
2022-08-21T14:39:23.365Z,28.36
2022-08-21T14:40:23.445Z,28.43
2022-08-21T14:41:23.337Z,28.40
2022-08-21T14:42:23.322Z,28.36
2022-08-21T14:43:23.319Z,28.40
2022-08-21T14:44:23.302Z,28.31
2022-08-21T14:45:24.773Z,28.39
2022-08-21T14:46:28.304Z,28.33
2022-08-21T14:47:23.268Z,28.33
2022-08-21T14:48:23.271Z,28.33
2022-08-21T14:49:23.245Z,28.12
2022-08-21T14:50:23.236Z,28.09
2022-08-21T14:51:23.228Z,28.15
2022-08-21T14:52:23.216Z,28.14
2022-08-21T14:53:23.215Z,28.17
2022-08-21T14:54:23.287Z,28.17
2022-08-21T14:55:24.182Z,28.11
2022-08-21T14:56:23.172Z,27.99
2022-08-21T14:57:28.184Z,28.02
2022-08-21T14:58:23.158Z,28.07
2022-08-21T14:59:23.138Z,28.11
2022-08-21T15:00:23.126Z,28.19
2022-08-21T15:01:23.221Z,28.17
2022-08-21T15:02:23.108Z,28.18
2022-08-21T15:03:23.108Z,28.30
2022-08-21T15:04:23.084Z,28.21
2022-08-21T15:05:26.814Z,28.27
2022-08-21T15:06:24.066Z,28.30
2022-08-21T15:07:23.050Z,28.19
2022-08-21T15:08:28.077Z,28.19
2022-08-21T15:09:23.030Z,28.22
2022-08-21T15:10:23.019Z,28.33
2022-08-21T15:11:41.401Z,28.19
2022-08-21T15:12:23.999Z,28.15
2022-08-21T15:13:23.001Z,28.18
2022-08-21T15:14:22.978Z,28.17
2022-08-21T15:15:22.963Z,28.14
2022-08-21T15:16:22.954Z,27.96
2022-08-21T15:17:22.941Z,27.96
2022-08-21T15:18:22.934Z,28.03
2022-08-21T15:19:27.952Z,28.03
2022-08-21T15:20:22.911Z,28.00
2022-08-21T15:21:22.898Z,28.09
2022-08-21T15:22:27.696Z,28.14
2022-08-21T15:23:23.887Z,28.14
2022-08-21T15:24:22.867Z,28.09
2022-08-21T15:25:22.859Z,28.12
2022-08-21T15:26:22.846Z,28.14
2022-08-21T15:27:22.835Z,28.09
2022-08-21T15:28:22.823Z,28.07
2022-08-21T15:29:23.078Z,28.15
2022-08-21T15:30:27.825Z,28.18
2022-08-21T15:31:22.791Z,28.21
2022-08-21T15:32:22.781Z,28.15
2022-08-21T15:33:22.767Z,28.21
2022-08-21T15:34:27.121Z,28.21
2022-08-21T15:35:23.746Z,28.17
2022-08-21T15:36:22.749Z,27.94
2022-08-21T15:37:22.725Z,27.92
2022-08-21T15:38:22.717Z,27.84
2022-08-21T15:39:24.726Z,27.88
2022-08-21T15:40:22.748Z,27.99
2022-08-21T15:41:27.709Z,28.03
2022-08-21T15:42:22.674Z,27.99
2022-08-21T15:43:22.660Z,28.17
2022-08-21T15:44:23.688Z,28.14
2022-08-21T15:45:22.638Z,28.12
2022-08-21T15:46:22.628Z,28.25
2022-08-21T15:47:22.622Z,28.29
2022-08-21T15:48:22.607Z,28.25
2022-08-21T15:49:22.610Z,28.31
2022-08-21T15:50:22.583Z,28.27
2022-08-21T15:51:22.577Z,28.33
2022-08-21T15:52:27.585Z,28.33
2022-08-21T15:53:22.550Z,28.39
2022-08-21T15:54:22.554Z,28.49
2022-08-21T15:55:22.528Z,28.36
2022-08-21T15:56:22.529Z,28.37
2022-08-21T15:57:22.506Z,28.34
2022-08-21T15:58:22.497Z,28.36
2022-08-21T15:59:22.495Z,28.34
2022-08-21T16:00:22.477Z,28.39
2022-08-21T16:01:22.535Z,28.31
2022-08-21T16:02:22.457Z,28.33
2022-08-21T16:03:27.468Z,28.34
2022-08-21T16:04:22.447Z,28.37
2022-08-21T16:05:22.421Z,28.37
2022-08-21T16:06:38.550Z,28.37
2022-08-21T16:07:23.400Z,28.34
2022-08-21T16:08:22.395Z,28.39
2022-08-21T16:09:22.388Z,28.31
2022-08-21T16:10:22.369Z,28.33
2022-08-21T16:11:22.357Z,28.15
2022-08-21T16:12:22.347Z,28.07
2022-08-21T16:13:22.333Z,28.04
2022-08-21T16:14:27.358Z,27.96
2022-08-21T16:15:22.328Z,27.96
2022-08-21T16:16:22.301Z,27.94
2022-08-21T16:17:22.289Z,27.99
2022-08-21T16:18:22.286Z,27.97
2022-08-21T16:19:22.278Z,28.00
2022-08-21T16:20:22.263Z,28.07
2022-08-21T16:21:22.246Z,28.03
2022-08-21T16:22:22.239Z,28.07
2022-08-21T16:23:22.228Z,28.14
2022-08-21T16:24:22.224Z,28.12
2022-08-21T16:25:27.251Z,28.17
2022-08-21T16:26:22.193Z,28.11
2022-08-21T16:27:22.180Z,28.12
2022-08-21T16:28:23.169Z,28.07
2022-08-21T16:29:22.167Z,28.15
2022-08-21T16:30:22.151Z,28.12
2022-08-21T16:31:22.140Z,28.11
2022-08-21T16:32:22.128Z,28.04
2022-08-21T16:33:22.112Z,27.82
2022-08-21T16:34:22.113Z,27.70
2022-08-21T16:35:22.094Z,27.75
2022-08-21T16:36:27.104Z,27.69
2022-08-21T16:37:24.439Z,27.84
2022-08-21T16:38:22.060Z,27.85
2022-08-21T16:39:22.057Z,27.85
2022-08-21T16:40:22.105Z,27.75
2022-08-21T16:41:22.040Z,27.87
2022-08-21T16:42:22.851Z,27.82
2022-08-21T16:43:22.005Z,27.84
2022-08-21T16:44:22.005Z,27.85
2022-08-21T16:45:21.982Z,27.88
2022-08-21T16:46:21.970Z,27.87
2022-08-21T16:47:27.537Z,27.78
2022-08-21T16:48:21.966Z,27.81
2022-08-21T16:49:21.949Z,27.72
2022-08-21T16:50:21.930Z,27.70
2022-08-21T16:51:21.915Z,27.77
2022-08-21T16:52:21.904Z,27.69